Time;durP1;ratioP1;P1;durP2;ratioP2;P2;SDS_P1;SDS_P2;PMS_P1;PMS_P2;Temp;Humidity;BMP_temperature;BMP_pressure;BME280_temperature;BME280_humidity;BME280_pressure;Samples;Min_cycle;Max_cycle;Signal;HPM_P1;HPM_P2
2022/09/22 00:01:16;;;;;;;7.10;4.47;;;;;;;;;;5087160;28;20259;-76
2022/09/22 00:03:47;;;;;;;6.90;4.47;;;;;;;;;;5082600;28;20251;-75
2022/09/22 00:06:17;;;;;;;4.40;4.00;;;;;;;;;;5084366;28;20709;-75
2022/09/22 00:08:47;;;;;;;6.67;4.17;;;;;;;;;;5074036;28;20226;-76
2022/09/22 00:11:18;;;;;;;4.97;4.10;;;;;;;;;;5084397;28;20290;-75
2022/09/22 00:13:47;;;;;;;5.07;4.07;;;;;;;;;;5073349;28;20272;-76
2022/09/22 00:16:16;;;;;;;7.00;4.07;;;;;;;;;;5076647;28;20724;-75
2022/09/22 00:18:45;;;;;;;6.37;5.20;;;;;;;;;;5093305;28;20288;-76
2022/09/22 00:21:14;;;;;;;7.87;6.03;;;;;;;;;;5081296;28;20707;-76
2022/09/22 00:23:43;;;;;;;6.43;5.83;;;;;;;;;;5073418;28;20305;-76
2022/09/22 00:26:12;;;;;;;7.37;6.50;;;;;;;;;;5084961;28;20244;-76
2022/09/22 00:28:44;;;;;;;7.70;6.37;;;;;;;;;;5091213;28;20729;-75
2022/09/22 00:31:15;;;;;;;9.23;6.13;;;;;;;;;;5079543;28;20252;-75
2022/09/22 00:33:45;;;;;;;7.03;6.20;;;;;;;;;;5072924;28;20222;-76
2022/09/22 00:36:14;;;;;;;7.70;6.63;;;;;;;;;;5084132;28;20635;-75
2022/09/22 00:38:43;;;;;;;10.07;6.50;;;;;;;;;;5093358;28;20237;-75
2022/09/22 00:41:17;;;;;;;7.53;5.63;;;;;;;;;;5073533;28;20237;-76
2022/09/22 00:43:49;;;;;;;6.73;6.00;;;;;;;;;;5091428;28;20562;-75
2022/09/22 00:46:19;;;;;;;9.80;6.50;;;;;;;;;;5086553;28;20243;-75
2022/09/22 00:48:49;;;;;;;7.03;5.93;;;;;;;;;;5073306;28;20207;-76
2022/09/22 00:51:18;;;;;;;8.30;5.23;;;;;;;;;;5085401;28;20289;-75
2022/09/22 00:53:47;;;;;;;6.47;5.03;;;;;;;;;;5073388;28;20218;-75
2022/09/22 00:56:18;;;;;;;6.13;4.60;;;;;;;;;;5087698;28;20300;-75
2022/09/22 00:58:50;;;;;;;6.27;5.17;;;;;;;;;;5087088;28;20589;-75
2022/09/22 01:01:19;;;;;;;6.80;4.87;;;;;;;;;;5075242;28;20226;-75
2022/09/22 01:03:48;;;;;;;7.33;4.77;;;;;;;;;;5073813;28;20566;-76
2022/09/22 01:06:18;;;;;;;5.07;4.53;;;;;;;;;;5076106;28;20384;-75
2022/09/22 01:08:47;;;;;;;6.17;4.67;;;;;;;;;;5091447;28;20252;-75
2022/09/22 01:11:17;;;;;;;5.57;4.70;;;;;;;;;;5089414;28;20807;-76
2022/09/22 01:13:52;;;;;;;6.37;4.53;;;;;;;;;;5074599;28;20655;-76
2022/09/22 01:16:31;;;;;;;8.53;5.40;;;;;;;;;;5090448;28;20244;-75
2022/09/22 01:19:06;;;;;;;7.63;4.80;;;;;;;;;;5077858;28;20199;-75
2022/09/22 01:21:40;;;;;;;7.30;5.00;;;;;;;;;;5078849;28;20292;-76
2022/09/22 01:24:20;;;;;;;5.13;4.20;;;;;;;;;;5092891;28;20678;-75
2022/09/22 01:27:06;;;;;;;5.27;4.77;;;;;;;;;;5075739;28;20237;-75
2022/09/22 01:29:45;;;;;;;6.47;5.13;;;;;;;;;;5075930;28;20308;-77
2022/09/22 01:32:17;;;;;;;6.80;5.43;;;;;;;;;;5083583;28;20253;-76
2022/09/22 01:34:48;;;;;;;7.57;5.60;;;;;;;;;;5085036;28;20202;-75
2022/09/22 01:37:21;;;;;;;8.70;5.87;;;;;;;;;;5085152;28;20255;-75
2022/09/22 01:39:51;;;;;;;5.90;5.37;;;;;;;;;;5087654;28;20622;-76
2022/09/22 01:42:26;;;;;;;8.53;4.97;;;;;;;;;;5072043;28;20282;-75
2022/09/22 01:44:56;;;;;;;7.43;4.87;;;;;;;;;;5073647;28;20292;-75
2022/09/22 01:47:28;;;;;;;6.60;4.87;;;;;;;;;;5081276;28;20252;-76
2022/09/22 01:49:58;;;;;;;9.10;5.50;;;;;;;;;;5089982;28;20292;-76
2022/09/22 01:52:28;;;;;;;5.33;4.67;;;;;;;;;;5093973;28;20654;-76
2022/09/22 01:54:58;;;;;;;7.00;4.93;;;;;;;;;;5103174;28;20229;-75
2022/09/22 01:57:29;;;;;;;5.83;5.10;;;;;;;;;;5087117;28;20218;-76
2022/09/22 01:59:59;;;;;;;5.27;4.57;;;;;;;;;;5080145;28;20281;-76
2022/09/22 02:02:31;;;;;;;5.70;4.33;;;;;;;;;;5081921;28;20416;-76
2022/09/22 02:05:01;;;;;;;4.83;4.40;;;;;;;;;;5087578;28;20690;-75
2022/09/22 02:07:32;;;;;;;5.20;4.50;;;;;;;;;;5085032;28;20243;-76
2022/09/22 02:10:03;;;;;;;6.47;4.33;;;;;;;;;;5079792;28;20305;-76
2022/09/22 02:12:31;;;;;;;7.20;4.60;;;;;;;;;;5084234;28;20253;-75
2022/09/22 02:15:00;;;;;;;5.23;4.73;;;;;;;;;;5095129;28;20202;-76
2022/09/22 02:17:30;;;;;;;5.50;3.80;;;;;;;;;;5089577;28;20335;-75
2022/09/22 02:20:05;;;;;;;6.90;4.53;;;;;;;;;;5092022;28;20663;-76
2022/09/22 02:22:33;;;;;;;4.97;4.53;;;;;;;;;;5085855;28;20304;-76
2022/09/22 02:25:02;;;;;;;5.50;4.27;;;;;;;;;;5094764;28;20258;-75
2022/09/22 02:27:35;;;;;;;6.27;4.70;;;;;;;;;;5084245;28;20293;-75
2022/09/22 02:30:07;;;;;;;5.03;4.53;;;;;;;;;;5092872;28;20225;-75
2022/09/22 02:32:37;;;;;;;4.50;4.10;;;;;;;;;;5075621;28;20240;-76
2022/09/22 02:35:07;;;;;;;5.77;3.93;;;;;;;;;;5081778;28;20198;-76
2022/09/22 02:37:39;;;;;;;4.97;4.17;;;;;;;;;;5093854;28;20297;-75
2022/09/22 02:40:10;;;;;;;5.97;4.30;;;;;;;;;;5081318;28;20221;-77
2022/09/22 02:42:41;;;;;;;4.83;4.43;;;;;;;;;;5092978;28;20263;-75
2022/09/22 02:45:12;;;;;;;6.83;4.20;;;;;;;;;;5086563;28;20278;-76
2022/09/22 02:47:43;;;;;;;5.03;4.60;;;;;;;;;;5093522;28;20294;-76
2022/09/22 02:50:14;;;;;;;5.27;4.53;;;;;;;;;;5092848;28;20242;-76
2022/09/22 02:52:42;;;;;;;5.33;4.10;;;;;;;;;;5074381;28;20218;-76
2022/09/22 02:55:11;;;;;;;5.70;3.70;;;;;;;;;;5082715;28;20270;-75
2022/09/22 02:57:39;;;;;;;5.53;4.50;;;;;;;;;;5092751;28;20249;-76
2022/09/22 03:00:08;;;;;;;5.93;4.40;;;;;;;;;;5092744;28;20629;-76
2022/09/22 03:02:36;;;;;;;5.83;4.07;;;;;;;;;;5077868;28;20229;-75
2022/09/22 03:05:07;;;;;;;5.33;4.50;;;;;;;;;;5097436;28;20689;-75
2022/09/22 03:07:35;;;;;;;5.00;3.87;;;;;;;;;;5087582;28;20241;-75
2022/09/22 03:10:04;;;;;;;6.60;4.57;;;;;;;;;;5080876;28;20301;-75
2022/09/22 03:12:32;;;;;;;4.03;3.73;;;;;;;;;;5080188;28;20252;-75
2022/09/22 03:15:01;;;;;;;5.50;4.13;;;;;;;;;;5098540;28;20201;-75
2022/09/22 03:17:30;;;;;;;4.37;3.97;;;;;;;;;;5096212;28;20233;-75
2022/09/22 03:19:59;;;;;;;6.03;3.37;;;;;;;;;;5083064;28;20210;-77
2022/09/22 03:22:29;;;;;;;4.73;4.10;;;;;;;;;;5091519;28;20305;-75
2022/09/22 03:24:57;;;;;;;5.27;3.90;;;;;;;;;;5093174;28;20245;-75
2022/09/22 03:27:26;;;;;;;4.73;3.97;;;;;;;;;;5087689;28;20240;-75
2022/09/22 03:29:55;;;;;;;5.30;3.77;;;;;;;;;;5089209;28;20228;-75
2022/09/22 03:32:23;;;;;;;6.27;4.10;;;;;;;;;;5074398;28;20266;-76
2022/09/22 03:34:52;;;;;;;4.57;4.10;;;;;;;;;;5090154;28;20642;-76
2022/09/22 03:37:20;;;;;;;4.37;3.97;;;;;;;;;;5074741;28;20245;-75
2022/09/22 03:39:50;;;;;;;4.40;4.00;;;;;;;;;;5085341;28;20716;-75
2022/09/22 03:42:18;;;;;;;4.53;4.10;;;;;;;;;;5075957;28;20313;-75
2022/09/22 03:44:46;;;;;;;4.37;3.97;;;;;;;;;;5084114;28;20647;-75
2022/09/22 03:47:15;;;;;;;5.60;4.40;;;;;;;;;;5081733;28;20588;-75
2022/09/22 03:49:43;;;;;;;4.97;4.00;;;;;;;;;;5076419;28;20253;-76
2022/09/22 03:52:12;;;;;;;4.53;4.13;;;;;;;;;;5085599;28;20305;-76
2022/09/22 03:54:40;;;;;;;5.13;4.57;;;;;;;;;;5083172;28;20289;-76
2022/09/22 03:57:10;;;;;;;5.37;4.60;;;;;;;;;;5074236;28;20298;-76
2022/09/22 03:59:38;;;;;;;5.23;4.70;;;;;;;;;;5080081;28;20250;-76
2022/09/22 04:02:07;;;;;;;6.73;4.20;;;;;;;;;;5092217;28;20283;-76
2022/09/22 04:04:36;;;;;;;6.43;4.50;;;;;;;;;;5074715;28;20434;-76
2022/09/22 04:07:04;;;;;;;5.53;4.20;;;;;;;;;;5082433;28;20206;-76
2022/09/22 04:09:34;;;;;;;4.60;4.20;;;;;;;;;;5085427;28;20224;-75
2022/09/22 04:12:03;;;;;;;6.03;4.27;;;;;;;;;;5077978;28;20717;-76
2022/09/22 04:14:33;;;;;;;4.70;4.30;;;;;;;;;;5093451;28;20242;-76
2022/09/22 04:17:03;;;;;;;5.67;3.90;;;;;;;;;;5092298;28;20240;-76
2022/09/22 04:19:34;;;;;;;5.97;4.17;;;;;;;;;;5084141;28;20281;-75
2022/09/22 04:22:03;;;;;;;4.67;4.23;;;;;;;;;;5088222;28;20218;-76
2022/09/22 04:24:31;;;;;;;5.07;4.10;;;;;;;;;;5079795;28;20244;-76
2022/09/22 04:27:00;;;;;;;5.00;4.00;;;;;;;;;;5088682;28;20292;-76
2022/09/22 04:29:48;;;;;;;5.13;4.10;;;;;;;;;;5083687;28;20282;-76
2022/09/22 04:32:17;;;;;;;8.10;3.93;;;;;;;;;;5091174;28;20590;-76
2022/09/22 04:34:46;;;;;;;4.50;4.10;;;;;;;;;;5092431;28;20228;-76
2022/09/22 04:37:15;;;;;;;6.37;4.30;;;;;;;;;;5080374;28;20284;-76
2022/09/22 04:39:43;;;;;;;4.37;3.83;;;;;;;;;;5091946;28;20252;-76
2022/09/22 04:42:11;;;;;;;5.23;4.20;;;;;;;;;;5090728;28;20217;-76
2022/09/22 04:44:40;;;;;;;4.73;4.23;;;;;;;;;;5089578;28;20300;-76
2022/09/22 04:47:10;;;;;;;4.30;3.90;;;;;;;;;;5090611;28;20585;-76
2022/09/22 04:49:38;;;;;;;4.93;4.43;;;;;;;;;;5082708;28;20292;-76
2022/09/22 04:52:07;;;;;;;5.23;4.73;;;;;;;;;;5090230;28;20235;-76
2022/09/22 04:54:35;;;;;;;5.30;4.60;;;;;;;;;;5087512;28;20229;-76
2022/09/22 04:57:04;;;;;;;5.30;4.20;;;;;;;;;;5091961;28;20716;-76
2022/09/22 04:59:34;;;;;;;6.23;4.03;;;;;;;;;;5089634;28;20292;-76
2022/09/22 05:02:02;;;;;;;4.70;4.27;;;;;;;;;;5088008;28;20347;-76
2022/09/22 05:04:32;;;;;;;5.20;4.03;;;;;;;;;;5086059;28;20300;-76
2022/09/22 05:07:00;;;;;;;4.83;4.43;;;;;;;;;;5092725;28;20232;-76
2022/09/22 05:09:29;;;;;;;6.77;4.50;;;;;;;;;;5085887;28;20220;-76
2022/09/22 05:11:58;;;;;;;5.17;4.33;;;;;;;;;;5092509;28;20239;-76
2022/09/22 05:14:26;;;;;;;5.23;4.20;;;;;;;;;;5092491;28;20245;-76
2022/09/22 05:16:55;;;;;;;4.70;4.30;;;;;;;;;;5092496;28;20299;-76
2022/09/22 05:19:23;;;;;;;4.43;4.03;;;;;;;;;;5082770;28;20232;-76
2022/09/22 05:21:53;;;;;;;4.50;4.10;;;;;;;;;;5094448;28;20213;-76
2022/09/22 05:24:22;;;;;;;6.13;4.30;;;;;;;;;;5089900;28;20290;-76
2022/09/22 05:26:50;;;;;;;6.47;4.27;;;;;;;;;;5093226;28;20622;-76
2022/09/22 05:29:19;;;;;;;5.87;4.43;;;;;;;;;;5093414;28;20353;-76
2022/09/22 05:31:53;;;;;;;5.97;4.67;;;;;;;;;;5091728;28;20697;-76
2022/09/22 05:34:21;;;;;;;4.90;4.17;;;;;;;;;;5076408;28;20204;-76
2022/09/22 05:36:49;;;;;;;4.87;4.23;;;;;;;;;;5092222;28;20288;-76
2022/09/22 05:39:20;;;;;;;5.23;4.73;;;;;;;;;;5087365;28;20256;-76
2022/09/22 05:41:49;;;;;;;5.13;4.63;;;;;;;;;;5072980;28;20201;-75
2022/09/22 05:44:17;;;;;;;6.70;4.70;;;;;;;;;;5083932;28;20293;-76
2022/09/22 05:46:46;;;;;;;6.40;4.70;;;;;;;;;;5082730;28;20292;-76
2022/09/22 05:49:14;;;;;;;4.80;4.30;;;;;;;;;;5092382;28;20198;-76
2022/09/22 05:51:42;;;;;;;4.67;4.30;;;;;;;;;;5091917;28;20229;-76
2022/09/22 05:54:11;;;;;;;4.70;4.30;;;;;;;;;;5089318;28;20197;-76
2022/09/22 05:56:41;;;;;;;6.07;4.57;;;;;;;;;;5092323;28;20209;-76
2022/09/22 05:59:09;;;;;;;5.90;4.60;;;;;;;;;;5091590;28;20246;-76
2022/09/22 06:01:38;;;;;;;5.73;5.10;;;;;;;;;;5093122;28;20209;-76
2022/09/22 06:04:06;;;;;;;5.93;5.37;;;;;;;;;;5093032;28;20291;-76
2022/09/22 06:06:35;;;;;;;5.70;5.20;;;;;;;;;;5092806;28;20636;-76
2022/09/22 06:09:03;;;;;;;5.67;5.13;;;;;;;;;;5092168;28;20288;-76
2022/09/22 06:11:32;;;;;;;6.37;5.10;;;;;;;;;;5082373;28;20573;-76
2022/09/22 06:14:01;;;;;;;5.87;5.20;;;;;;;;;;5073900;28;20297;-76
2022/09/22 06:16:30;;;;;;;5.43;4.93;;;;;;;;;;5073570;28;20245;-76
2022/09/22 06:18:59;;;;;;;6.30;5.20;;;;;;;;;;5092432;28;20259;-76
2022/09/22 06:21:27;;;;;;;5.57;5.07;;;;;;;;;;5092912;28;20604;-76
2022/09/22 06:23:56;;;;;;;5.57;4.97;;;;;;;;;;5086023;28;20259;-76
2022/09/22 06:26:24;;;;;;;5.50;5.00;;;;;;;;;;5092458;28;20209;-76
2022/09/22 06:28:53;;;;;;;6.17;5.20;;;;;;;;;;5092859;28;20241;-76
2022/09/22 06:31:23;;;;;;;5.70;5.20;;;;;;;;;;5092752;28;20572;-75
2022/09/22 06:33:53;;;;;;;6.23;5.63;;;;;;;;;;5085818;28;20222;-76
2022/09/22 06:36:30;;;;;;;5.83;5.17;;;;;;;;;;5093081;28;20287;-75
2022/09/22 06:38:58;;;;;;;8.10;6.43;;;;;;;;;;5096573;28;20250;-75
2022/09/22 06:41:27;;;;;;;7.37;6.57;;;;;;;;;;5096559;28;20654;-76
2022/09/22 06:43:55;;;;;;;9.93;7.10;;;;;;;;;;5084979;28;20301;-76
2022/09/22 06:46:25;;;;;;;7.90;6.60;;;;;;;;;;5076188;28;20675;-76
2022/09/22 06:48:56;;;;;;;9.07;6.63;;;;;;;;;;5096011;28;20202;-76
2022/09/22 06:51:25;;;;;;;7.10;6.00;;;;;;;;;;5095800;28;20253;-76
2022/09/22 06:53:54;;;;;;;5.63;5.13;;;;;;;;;;5091697;28;20252;-76
2022/09/22 06:56:23;;;;;;;5.77;4.67;;;;;;;;;;5095776;28;20255;-76
2022/09/22 06:58:52;;;;;;;4.93;4.20;;;;;;;;;;5096096;28;20290;-76
2022/09/22 07:01:39;;;;;;;4.17;3.40;;;;;;;;;;5095616;28;20612;-76
2022/09/22 07:04:08;;;;;;;3.50;2.93;;;;;;;;;;5086279;28;20209;-76
2022/09/22 07:06:38;;;;;;;3.20;2.87;;;;;;;;;;5095400;28;20228;-76
2022/09/22 07:09:07;;;;;;;3.53;2.93;;;;;;;;;;5095929;28;20209;-76
2022/09/22 07:11:36;;;;;;;4.23;2.80;;;;;;;;;;5095320;28;20221;-76
2022/09/22 07:14:07;;;;;;;4.07;3.10;;;;;;;;;;5083152;28;20662;-76
2022/09/22 07:16:36;;;;;;;4.60;3.50;;;;;;;;;;5077083;28;20202;-76
2022/09/22 07:19:06;;;;;;;5.03;3.67;;;;;;;;;;5095226;28;20233;-76
2022/09/22 07:21:37;;;;;;;3.23;2.73;;;;;;;;;;5093425;28;20655;-76
2022/09/22 07:24:07;;;;;;;3.80;2.93;;;;;;;;;;5094745;28;20236;-75
2022/09/22 07:26:37;;;;;;;3.67;2.70;;;;;;;;;;5095478;28;20210;-76
2022/09/22 07:29:07;;;;;;;4.60;3.23;;;;;;;;;;5095255;28;20830;-76
2022/09/22 07:31:36;;;;;;;6.53;2.97;;;;;;;;;;5095231;28;20218;-76
2022/09/22 07:34:06;;;;;;;4.73;2.90;;;;;;;;;;5111985;28;20208;-76
2022/09/22 07:36:36;;;;;;;4.90;2.90;;;;;;;;;;5115519;28;20726;-76
2022/09/22 07:39:05;;;;;;;3.20;2.90;;;;;;;;;;5115387;28;20588;-76
2022/09/22 07:41:40;;;;;;;4.20;2.87;;;;;;;;;;5115886;28;20193;-76
2022/09/22 07:46:55;;;;;;;5.23;3.10;;;;;;;;;;5078919;28;20209;-76
2022/09/22 07:49:25;;;;;;;4.77;3.17;;;;;;;;;;5094480;28;20316;-76
2022/09/22 07:51:54;;;;;;;4.43;2.73;;;;;;;;;;5094274;28;20312;-76
2022/09/22 07:54:22;;;;;;;4.83;2.90;;;;;;;;;;5093993;28;20202;-76
2022/09/22 07:56:54;;;;;;;4.83;3.13;;;;;;;;;;5094471;28;20260;-76
2022/09/22 07:59:23;;;;;;;5.53;3.30;;;;;;;;;;5093897;28;20259;-76
2022/09/22 08:01:52;;;;;;;5.37;3.17;;;;;;;;;;5094364;28;20222;-76
2022/09/22 08:04:21;;;;;;;3.47;2.70;;;;;;;;;;5095554;28;20206;-76
2022/09/22 08:06:54;;;;;;;4.13;2.73;;;;;;;;;;5110841;27;20233;-76
2022/09/22 08:09:23;;;;;;;6.00;2.40;;;;;;;;;;5094768;28;20194;-76
2022/09/22 08:11:52;;;;;;;4.77;2.30;;;;;;;;;;5094330;28;20225;-76
2022/09/22 08:14:22;;;;;;;5.10;2.50;;;;;;;;;;5112272;28;20205;-76
2022/09/22 08:16:52;;;;;;;4.27;2.33;;;;;;;;;;5110104;28;20202;-76
2022/09/22 08:19:22;;;;;;;5.77;2.67;;;;;;;;;;5094364;28;20630;-76
2022/09/22 08:21:53;;;;;;;4.53;2.43;;;;;;;;;;5094126;28;20228;-76
2022/09/22 08:24:22;;;;;;;4.03;2.47;;;;;;;;;;5076078;28;20281;-76
2022/09/22 08:26:52;;;;;;;4.40;2.50;;;;;;;;;;5074905;28;20289;-76
2022/09/22 08:29:20;;;;;;;6.43;2.20;;;;;;;;;;5093944;28;20237;-76
2022/09/22 08:31:50;;;;;;;3.47;1.90;;;;;;;;;;5093879;28;20300;-76
2022/09/22 08:34:21;;;;;;;6.17;2.40;;;;;;;;;;5092152;28;20646;-76
2022/09/22 08:36:49;;;;;;;6.63;2.23;;;;;;;;;;5094125;28;20243;-76
2022/09/22 08:39:19;;;;;;;5.03;2.23;;;;;;;;;;5093668;28;20674;-76
2022/09/22 08:42:09;;;;;;;4.43;2.03;;;;;;;;;;5093679;28;20202;-76
2022/09/22 08:44:39;;;;;;;4.70;2.17;;;;;;;;;;5075925;28;20241;-76
2022/09/22 08:47:13;;;;;;;4.80;2.20;;;;;;;;;;5074467;28;20640;-76
2022/09/22 08:52:34;;;;;;;4.60;2.10;;;;;;;;;;5073437;28;20261;-76
2022/09/22 08:55:04;;;;;;;6.43;2.20;;;;;;;;;;5073161;28;20279;-76
2022/09/22 08:57:43;;;;;;;4.00;2.07;;;;;;;;;;5076875;28;20210;-76
2022/09/22 09:00:13;;;;;;;2.73;1.90;;;;;;;;;;5093405;28;20737;-76
2022/09/22 09:02:43;;;;;;;4.17;2.10;;;;;;;;;;5091792;28;20706;-76
2022/09/22 09:05:38;;;;;;;3.73;1.70;;;;;;;;;;5079808;28;20212;-76
2022/09/22 09:08:13;;;;;;;4.53;2.03;;;;;;;;;;5093499;28;20692;-76
2022/09/22 09:10:48;;;;;;;2.83;1.60;;;;;;;;;;5093153;28;20209;-75
2022/09/22 09:13:28;;;;;;;3.63;2.03;;;;;;;;;;5088293;28;20267;-76
2022/09/22 09:16:02;;;;;;;3.65;1.73;;;;;;;;;;5077528;28;20288;-76
2022/09/22 09:18:32;;;;;;;3.97;1.92;;;;;;;;;;5093139;28;20209;-76
2022/09/22 09:21:02;;;;;;;4.90;1.83;;;;;;;;;;5090531;28;20247;-76
2022/09/22 09:23:33;;;;;;;4.35;1.80;;;;;;;;;;5092900;28;20257;-76
2022/09/22 09:26:24;;;;;;;3.47;1.70;;;;;;;;;;5092883;28;20383;-76
2022/09/22 09:28:55;;;;;;;3.97;1.98;;;;;;;;;;5093252;28;20267;-76
2022/09/22 09:31:30;;;;;;;5.25;2.45;;;;;;;;;;5091789;28;20197;-75
2022/09/22 09:34:01;;;;;;;5.43;2.08;;;;;;;;;;5092065;28;20706;-75
2022/09/22 09:36:32;;;;;;;3.00;2.00;;;;;;;;;;5092971;28;20282;-75
2022/09/22 09:39:01;;;;;;;4.22;1.90;;;;;;;;;;5093071;28;20635;-76
2022/09/22 09:41:31;;;;;;;4.28;2.17;;;;;;;;;;5082086;28;20293;-76
2022/09/22 09:44:01;;;;;;;2.13;1.75;;;;;;;;;;5089404;28;20221;-75
2022/09/22 09:46:34;;;;;;;2.72;1.65;;;;;;;;;;5092895;28;20727;-76
2022/09/22 09:49:05;;;;;;;4.55;1.67;;;;;;;;;;5093169;28;20266;-75
2022/09/22 09:51:35;;;;;;;4.30;1.90;;;;;;;;;;5092016;28;20236;-76
2022/09/22 09:54:08;;;;;;;5.22;1.90;;;;;;;;;;5091309;28;20225;-76
2022/09/22 09:57:08;;;;;;;5.05;1.33;;;;;;;;;;5092422;28;20300;-76
2022/09/22 10:02:23;;;;;;;3.50;1.20;;;;;;;;;;5072698;28;20226;-75
2022/09/22 10:04:53;;;;;;;1.73;1.08;;;;;;;;;;5088821;28;20233;-75
2022/09/22 10:07:24;;;;;;;3.42;1.27;;;;;;;;;;5092469;28;20268;-75
2022/09/22 10:09:53;;;;;;;2.28;1.08;;;;;;;;;;5095985;28;20561;-75
2022/09/22 10:12:28;;;;;;;2.22;1.10;;;;;;;;;;5096468;28;20230;-75
2022/09/22 10:14:57;;;;;;;2.08;1.15;;;;;;;;;;5095797;28;20229;-75
2022/09/22 10:17:28;;;;;;;2.47;0.90;;;;;;;;;;5095563;28;20202;-76
2022/09/22 10:20:16;;;;;;;2.00;1.17;;;;;;;;;;5096683;28;20292;-75
2022/09/22 10:22:44;;;;;;;2.42;1.30;;;;;;;;;;5078905;28;20250;-76
2022/09/22 10:25:20;;;;;;;2.08;1.25;;;;;;;;;;5075890;28;20203;-76
2022/09/22 10:28:01;;;;;;;3.33;1.30;;;;;;;;;;5075709;28;20248;-75
2022/09/22 10:30:31;;;;;;;4.35;1.48;;;;;;;;;;5075964;28;20246;-76
2022/09/22 10:33:14;;;;;;;2.00;0.98;;;;;;;;;;5094218;28;20682;-76
2022/09/22 10:35:43;;;;;;;2.47;1.15;;;;;;;;;;5095947;28;20245;-76
2022/09/22 10:38:16;;;;;;;3.28;1.10;;;;;;;;;;5095023;28;20292;-75
2022/09/22 10:40:47;;;;;;;3.10;1.38;;;;;;;;;;5091666;28;20281;-76
2022/09/22 10:43:28;;;;;;;2.95;1.40;;;;;;;;;;5095144;28;20271;-75
2022/09/22 10:46:00;;;;;;;3.00;1.40;;;;;;;;;;5095934;28;20706;-75
2022/09/22 10:48:34;;;;;;;3.67;1.85;;;;;;;;;;5094864;28;20318;-75
2022/09/22 10:51:08;;;;;;;1.95;0.90;;;;;;;;;;5095137;28;20237;-76
2022/09/22 10:53:44;;;;;;;2.28;1.00;;;;;;;;;;5095661;28;20243;-75
2022/09/22 10:56:15;;;;;;;4.68;1.20;;;;;;;;;;5095841;28;20637;-75
2022/09/22 10:59:07;;;;;;;1.92;1.02;;;;;;;;;;5094826;28;20270;-75
2022/09/22 11:01:45;;;;;;;3.40;1.00;;;;;;;;;;5085270;28;20202;-75
2022/09/22 11:04:19;;;;;;;2.20;1.08;;;;;;;;;;5075313;28;20202;-75
2022/09/22 11:12:34;;;;;;;2.10;1.17;;;;;;;;;;5086623;28;20304;-76
2022/09/22 11:15:08;;;;;;;3.22;1.20;;;;;;;;;;5095137;28;20232;-75
2022/09/22 11:17:54;;;;;;;2.58;1.38;;;;;;;;;;5094165;28;20206;-76
2022/09/22 11:20:31;;;;;;;2.72;1.30;;;;;;;;;;5094488;28;20249;-75
2022/09/22 11:23:06;;;;;;;2.63;1.13;;;;;;;;;;5080256;28;20743;-75
2022/09/22 11:25:42;;;;;;;4.85;1.13;;;;;;;;;;5074828;28;20301;-75
2022/09/22 11:28:20;;;;;;;2.28;1.02;;;;;;;;;;5089253;28;20202;-75
2022/09/22 11:30:50;;;;;;;1.70;1.00;;;;;;;;;;5095125;28;20300;-75
2022/09/22 11:33:25;;;;;;;3.17;1.30;;;;;;;;;;5092741;28;20774;-75
2022/09/22 11:36:04;;;;;;;3.05;1.05;;;;;;;;;;5093357;28;20296;-75
2022/09/22 11:38:59;;;;;;;1.55;0.95;;;;;;;;;;5091221;28;20277;-75
2022/09/22 11:41:30;;;;;;;1.70;0.98;;;;;;;;;;5093945;28;20714;-76
2022/09/22 11:44:19;;;;;;;3.67;0.90;;;;;;;;;;5094115;28;20284;-75
2022/09/22 11:47:03;;;;;;;2.97;1.20;;;;;;;;;;5090011;28;20288;-76
2022/09/22 11:49:39;;;;;;;2.63;1.17;;;;;;;;;;5088988;28;20251;-75
2022/09/22 11:52:15;;;;;;;2.35;0.80;;;;;;;;;;5086440;28;20261;-75
2022/09/22 11:55:01;;;;;;;3.53;1.10;;;;;;;;;;5074195;28;20228;-75
2022/09/22 11:57:32;;;;;;;2.58;1.05;;;;;;;;;;5073590;28;20214;-75
2022/09/22 12:00:04;;;;;;;3.92;1.30;;;;;;;;;;5088261;28;20201;-75
2022/09/22 12:02:35;;;;;;;1.98;1.00;;;;;;;;;;5093220;28;20252;-75
2022/09/22 12:05:05;;;;;;;2.33;1.05;;;;;;;;;;5094284;28;20205;-75
2022/09/22 12:07:38;;;;;;;2.25;1.17;;;;;;;;;;5085369;28;20230;-75
2022/09/22 12:10:13;;;;;;;2.63;1.00;;;;;;;;;;5073976;28;20293;-75
2022/09/22 12:12:43;;;;;;;2.30;1.20;;;;;;;;;;5084967;28;20261;-75
2022/09/22 12:15:21;;;;;;;2.42;1.00;;;;;;;;;;5093935;28;20297;-76
2022/09/22 12:17:52;;;;;;;2.17;1.30;;;;;;;;;;5092843;28;20225;-76
2022/09/22 12:20:29;;;;;;;2.60;1.15;;;;;;;;;;5093301;28;20202;-75
2022/09/22 12:23:06;;;;;;;4.05;1.17;;;;;;;;;;5093717;28;20213;-75
2022/09/22 12:25:49;;;;;;;2.63;1.00;;;;;;;;;;5093259;28;20295;-76
2022/09/22 12:28:19;;;;;;;3.33;0.90;;;;;;;;;;5093157;28;20240;-75
2022/09/22 12:30:57;;;;;;;2.70;1.15;;;;;;;;;;5093602;28;20251;-75
2022/09/22 12:33:27;;;;;;;3.63;1.20;;;;;;;;;;5094001;28;20587;-75
2022/09/22 12:35:55;;;;;;;3.30;1.20;;;;;;;;;;5092150;28;20657;-75
2022/09/22 12:38:26;;;;;;;2.00;1.13;;;;;;;;;;5092967;28;20229;-75
2022/09/22 12:40:58;;;;;;;2.88;1.17;;;;;;;;;;5093705;28;20189;-75
2022/09/22 12:43:27;;;;;;;2.75;1.10;;;;;;;;;;5092865;28;20221;-75
2022/09/22 12:45:57;;;;;;;1.77;1.10;;;;;;;;;;5092269;28;20277;-75
2022/09/22 12:48:28;;;;;;;2.03;0.90;;;;;;;;;;5093645;28;20237;-76
2022/09/22 12:51:16;;;;;;;2.25;1.00;;;;;;;;;;5092050;28;20290;-76
2022/09/22 12:53:45;;;;;;;3.30;0.90;;;;;;;;;;5078631;28;20239;-75
2022/09/22 12:56:49;;;;;;;2.83;1.10;;;;;;;;;;4730802;28;9999900;-75
2022/09/22 12:59:36;;;;;;;1.75;1.00;;;;;;;;;;5003748;28;20287;-75
2022/09/22 13:02:18;;;;;;;1.73;0.90;;;;;;;;;;5073293;28;20759;-75
2022/09/22 13:05:02;;;;;;;1.67;0.90;;;;;;;;;;5089806;28;20194;-75
2022/09/22 13:07:34;;;;;;;4.20;1.20;;;;;;;;;;5086789;28;20638;-75
2022/09/22 13:10:17;;;;;;;2.88;1.13;;;;;;;;;;5089702;28;20286;-75
2022/09/22 13:13:00;;;;;;;1.90;1.05;;;;;;;;;;5085084;28;20698;-76
2022/09/22 13:15:31;;;;;;;1.42;0.90;;;;;;;;;;5092166;28;20309;-75
2022/09/22 13:17:59;;;;;;;3.10;1.17;;;;;;;;;;5090241;28;20296;-75
2022/09/22 13:20:31;;;;;;;2.67;1.00;;;;;;;;;;5083923;28;20746;-75
2022/09/22 13:23:06;;;;;;;2.85;1.00;;;;;;;;;;5088569;28;20634;-75
2022/09/22 13:25:35;;;;;;;3.72;1.10;;;;;;;;;;5090366;28;20279;-75
2022/09/22 13:28:04;;;;;;;2.88;1.17;;;;;;;;;;5088448;28;20217;-75
2022/09/22 13:30:34;;;;;;;1.42;0.98;;;;;;;;;;5083101;28;20233;-76
2022/09/22 13:33:03;;;;;;;1.92;0.95;;;;;;;;;;5088681;28;20299;-75
2022/09/22 13:35:33;;;;;;;1.27;0.70;;;;;;;;;;5080180;28;20305;-75
2022/09/22 13:38:02;;;;;;;2.72;1.20;;;;;;;;;;5080918;28;20205;-75
2022/09/22 13:40:33;;;;;;;3.60;1.20;;;;;;;;;;5071657;28;20207;-76
2022/09/22 13:43:05;;;;;;;2.58;1.25;;;;;;;;;;5089232;28;20226;-75
2022/09/22 13:45:36;;;;;;;3.10;1.30;;;;;;;;;;5078023;28;20189;-75
2022/09/22 13:48:07;;;;;;;2.00;1.17;;;;;;;;;;5094695;28;20237;-77
2022/09/22 13:50:41;;;;;;;3.65;1.20;;;;;;;;;;5092017;28;20297;-75
2022/09/22 13:53:09;;;;;;;2.38;1.20;;;;;;;;;;5080912;28;20217;-75
2022/09/22 13:55:38;;;;;;;2.55;1.27;;;;;;;;;;5082912;28;20702;-75
2022/09/22 13:58:09;;;;;;;2.00;1.40;;;;;;;;;;5083734;28;20931;-76
2022/09/22 14:00:42;;;;;;;3.67;1.48;;;;;;;;;;5092700;28;20220;-75
2022/09/22 14:03:37;;;;;;;1.60;1.02;;;;;;;;;;5091876;28;20222;-75
2022/09/22 14:06:09;;;;;;;1.60;1.10;;;;;;;;;;5079639;28;20548;-75
2022/09/22 14:08:38;;;;;;;1.65;0.88;;;;;;;;;;5074601;28;20241;-75
2022/09/22 14:11:09;;;;;;;1.27;0.90;;;;;;;;;;5086916;28;20288;-75
2022/09/22 14:13:41;;;;;;;2.45;0.90;;;;;;;;;;5084886;28;20226;-76
2022/09/22 14:16:12;;;;;;;2.85;0.80;;;;;;;;;;5089646;28;20266;-76
2022/09/22 14:18:43;;;;;;;2.22;0.80;;;;;;;;;;5093618;28;20198;-75
2022/09/22 14:21:12;;;;;;;1.95;1.08;;;;;;;;;;5093530;28;20230;-76
2022/09/22 14:23:44;;;;;;;1.17;0.70;;;;;;;;;;5089634;28;20268;-76
2022/09/22 14:26:19;;;;;;;1.00;0.90;;;;;;;;;;5095392;28;20284;-75
2022/09/22 14:28:48;;;;;;;0.80;0.70;;;;;;;;;;5084034;28;20662;-75
2022/09/22 14:31:21;;;;;;;2.47;0.90;;;;;;;;;;5097361;28;20229;-75
2022/09/22 14:33:50;;;;;;;1.83;0.80;;;;;;;;;;5095528;28;20726;-75
2022/09/22 14:36:19;;;;;;;1.02;0.70;;;;;;;;;;5093576;28;20309;-75
2022/09/22 14:38:48;;;;;;;2.85;1.00;;;;;;;;;;5092528;28;20263;-76
2022/09/22 14:41:36;;;;;;;1.30;0.80;;;;;;;;;;5090404;28;20200;-75
2022/09/22 14:44:26;;;;;;;2.78;0.88;;;;;;;;;;5092185;28;20202;-76
2022/09/22 14:47:28;;;;;;;1.40;0.82;;;;;;;;;;5088867;28;20666;-75
2022/09/22 14:50:19;;;;;;;2.13;0.95;;;;;;;;;;5092689;28;20293;-75
2022/09/22 14:52:51;;;;;;;1.90;1.00;;;;;;;;;;5090154;28;20222;-76
2022/09/22 14:55:28;;;;;;;2.63;1.10;;;;;;;;;;5075430;28;20294;-75
2022/09/22 14:57:57;;;;;;;1.23;0.77;;;;;;;;;;5084301;28;20213;-74
2022/09/22 15:03:17;;;;;;;2.42;1.10;;;;;;;;;;5079255;28;20288;-75
2022/09/22 15:05:49;;;;;;;5.95;1.17;;;;;;;;;;5084205;28;20276;-75
2022/09/22 15:08:19;;;;;;;3.05;1.17;;;;;;;;;;5095672;28;20558;-74
2022/09/22 15:10:55;;;;;;;4.90;1.00;;;;;;;;;;5093770;28;20289;-74
2022/09/22 15:13:28;;;;;;;2.88;1.00;;;;;;;;;;5075723;28;20555;-76
2022/09/22 15:15:57;;;;;;;2.50;1.17;;;;;;;;;;5080126;28;20301;-75
2022/09/22 15:18:26;;;;;;;2.95;1.00;;;;;;;;;;5088193;28;20466;-76
2022/09/22 15:21:04;;;;;;;2.60;1.20;;;;;;;;;;5092621;28;20245;-75
2022/09/22 15:23:38;;;;;;;4.63;1.20;;;;;;;;;;5090970;28;20686;-75
2022/09/22 15:26:06;;;;;;;7.13;1.30;;;;;;;;;;5086849;28;20229;-75
2022/09/22 15:28:37;;;;;;;6.90;1.50;;;;;;;;;;5078544;28;20566;-76